< < Back
Terminal Aerodrome Forecast


Current Version              Previous Versions:   1  2  3  4  5  6  7  8  9  

Terminal Aerodrome Forecast

718
FTUS42 KTAE 251120
TAFABY
TAF
KABY 251120Z 2512/2612 25005KT P6SM FEW050
     FM251800 27008KT P6SM TS BKN050CB
     FM252200 VRB03KT P6SM SCT050=



Latest METAR

567
SAUS70 KWBC 260100 RRI
MTRABY
METAR KABY 260053Z AUTO 00000KT 10SM CLR 25/23 A3005 RMK AO2 RAE12
SLP175 P0000 T02500228


USA.gov is the U.S. government's official web portal to all federal, state and local government web resources and services.